createdAt,value
2022-09-02T00:01:01.772Z,2.20
2022-09-02T00:03:31.236Z,2.90
2022-09-02T00:05:58.301Z,2.50
2022-09-02T00:08:24.858Z,2.60
2022-09-02T00:10:51.547Z,2.17
2022-09-02T00:13:20.028Z,2.53
2022-09-02T00:15:48.352Z,2.80
2022-09-02T00:18:18.107Z,2.40
2022-09-02T00:20:46.709Z,2.43
2022-09-02T00:23:13.890Z,2.50
2022-09-02T00:25:40.837Z,2.53
2022-09-02T00:28:07.645Z,2.40
2022-09-02T00:30:35.810Z,2.40
2022-09-02T00:33:02.763Z,3.20
2022-09-02T00:35:29.450Z,2.50
2022-09-02T00:37:55.890Z,2.43
2022-09-02T00:40:23.434Z,2.57
2022-09-02T00:42:51.276Z,2.30
2022-09-02T00:45:19.285Z,2.43
2022-09-02T00:47:46.089Z,2.43
2022-09-02T00:50:16.706Z,2.43
2022-09-02T00:52:51.034Z,2.50
2022-09-02T00:55:31.451Z,2.30
2022-09-02T00:58:05.358Z,2.13
2022-09-02T01:00:45.861Z,2.33
2022-09-02T01:03:17.980Z,2.30
2022-09-02T01:05:48.060Z,2.30
2022-09-02T01:08:20.988Z,2.67
2022-09-02T01:10:49.648Z,2.50
2022-09-02T01:13:19.465Z,2.77
2022-09-02T01:15:54.673Z,2.50
2022-09-02T01:18:25.560Z,2.37
2022-09-02T01:20:52.163Z,2.50
2022-09-02T01:23:19.116Z,2.87
2022-09-02T01:25:47.046Z,3.00
2022-09-02T01:28:16.872Z,2.63
2022-09-02T01:30:49.850Z,2.67
2022-09-02T01:33:18.218Z,2.00
2022-09-02T01:35:45.238Z,2.30
2022-09-02T01:38:12.464Z,2.50
2022-09-02T01:40:40.068Z,2.43
2022-09-02T01:43:13.481Z,2.60
2022-09-02T01:45:42.719Z,2.20
2022-09-02T01:48:11.049Z,2.50
2022-09-02T01:50:45.085Z,2.90
2022-09-02T01:53:14.469Z,2.60
2022-09-02T01:55:41.103Z,2.30
2022-09-02T01:58:08.149Z,2.37
2022-09-02T02:00:34.991Z,2.30
2022-09-02T02:03:01.772Z,2.63
2022-09-02T02:05:29.495Z,2.30
2022-09-02T02:07:55.947Z,2.47
2022-09-02T02:10:22.891Z,2.30
2022-09-02T02:12:49.917Z,2.10
2022-09-02T02:15:19.035Z,2.27
2022-09-02T02:17:46.051Z,2.50
2022-09-02T02:20:15.039Z,2.40
2022-09-02T02:22:42.456Z,2.40
2022-09-02T02:25:09.968Z,2.50
2022-09-02T02:27:36.531Z,2.67
2022-09-02T02:30:06.730Z,2.20
2022-09-02T02:32:33.631Z,2.20
2022-09-02T02:35:00.446Z,2.60
2022-09-02T02:37:26.932Z,2.23
2022-09-02T02:39:54.011Z,2.50
2022-09-02T02:42:21.002Z,2.47
2022-09-02T02:44:47.526Z,2.30
2022-09-02T02:47:14.184Z,2.23
2022-09-02T02:49:42.905Z,2.20
2022-09-02T02:52:11.448Z,2.10
2022-09-02T02:54:38.280Z,2.13
2022-09-02T02:57:06.256Z,2.10
2022-09-02T02:59:32.873Z,1.90
2022-09-02T03:01:59.460Z,2.17
2022-09-02T03:04:26.223Z,2.00
2022-09-02T03:06:52.901Z,2.13
2022-09-02T03:09:20.324Z,2.00
2022-09-02T03:11:48.343Z,2.07
2022-09-02T03:14:15.458Z,2.17
2022-09-02T03:16:43.308Z,1.70
2022-09-02T03:19:09.783Z,2.40
2022-09-02T03:21:38.700Z,2.67
2022-09-02T03:24:06.121Z,2.23
2022-09-02T03:26:32.773Z,2.10
2022-09-02T03:28:59.516Z,1.80
2022-09-02T03:31:27.104Z,2.30
2022-09-02T03:33:54.513Z,1.77
2022-09-02T03:36:33.280Z,1.90
2022-09-02T03:39:01.913Z,2.17
2022-09-02T03:41:28.403Z,2.13
2022-09-02T03:43:56.179Z,2.20
2022-09-02T03:46:22.653Z,2.33
2022-09-02T03:48:51.874Z,2.10
2022-09-02T03:51:20.733Z,3.83
2022-09-02T03:53:47.818Z,1.97
2022-09-02T03:56:15.583Z,1.83
2022-09-02T03:58:43.827Z,1.97
2022-09-02T04:01:18.847Z,2.30
2022-09-02T04:03:46.366Z,2.00
2022-09-02T04:06:14.453Z,1.87
2022-09-02T04:08:42.351Z,2.27
2022-09-02T04:11:10.375Z,2.40
2022-09-02T04:13:37.020Z,2.07
2022-09-02T04:16:31.130Z,1.90
2022-09-02T04:19:54.055Z,1.90
2022-09-02T04:22:20.516Z,2.17
2022-09-02T04:24:46.950Z,1.77
2022-09-02T04:27:13.489Z,2.20
2022-09-02T04:29:39.942Z,2.17
2022-09-02T04:32:06.440Z,1.80
2022-09-02T04:34:32.935Z,2.03
2022-09-02T04:36:59.364Z,2.07
2022-09-02T04:39:25.776Z,1.77
2022-09-02T04:41:53.816Z,2.00
2022-09-02T04:44:20.262Z,1.70
2022-09-02T04:46:46.988Z,2.10
2022-09-02T04:49:14.227Z,1.83
2022-09-02T04:51:40.705Z,1.93
2022-09-02T04:54:08.016Z,1.93
2022-09-02T04:56:34.844Z,1.90
2022-09-02T04:59:01.593Z,2.10
2022-09-02T05:01:32.483Z,2.00
2022-09-02T05:03:59.975Z,2.07
2022-09-02T05:06:28.224Z,2.30
2022-09-02T05:08:56.064Z,2.47
2022-09-02T05:11:28.423Z,1.97
2022-09-02T05:13:56.745Z,2.13
2022-09-02T05:16:26.856Z,2.17
2022-09-02T05:18:54.380Z,2.03
2022-09-02T05:21:23.113Z,2.00
2022-09-02T05:23:50.850Z,2.40
2022-09-02T05:26:21.211Z,2.10
2022-09-02T05:28:47.633Z,1.90
2022-09-02T05:31:17.269Z,2.03
2022-09-02T05:33:44.547Z,2.60
2022-09-02T05:36:17.612Z,2.20
2022-09-02T05:38:45.182Z,2.13
2022-09-02T05:41:15.068Z,2.10
2022-09-02T05:43:44.479Z,2.10
2022-09-02T05:46:17.518Z,1.83
2022-09-02T05:49:04.004Z,2.20
2022-09-02T05:51:31.744Z,1.60
2022-09-02T05:54:00.263Z,2.13
2022-09-02T05:56:27.490Z,2.10
2022-09-02T05:58:56.572Z,2.30
2022-09-02T06:01:23.543Z,2.10
2022-09-02T06:03:51.030Z,2.00
2022-09-02T06:06:18.625Z,2.37
2022-09-02T06:08:45.487Z,2.23
2022-09-02T06:11:12.857Z,2.23
2022-09-02T06:13:42.082Z,1.80
2022-09-02T06:16:13.374Z,2.20
2022-09-02T06:18:40.696Z,2.10
2022-09-02T06:21:07.428Z,2.23
2022-09-02T06:23:36.597Z,1.83
2022-09-02T06:26:03.134Z,1.80
2022-09-02T06:28:29.768Z,1.80
2022-09-02T06:30:56.316Z,2.00
2022-09-02T06:33:23.208Z,2.07
2022-09-02T06:35:49.870Z,2.00
2022-09-02T06:38:17.271Z,1.90
2022-09-02T06:40:55.536Z,2.20
2022-09-02T06:43:22.042Z,1.90
2022-09-02T06:45:48.647Z,1.80
2022-09-02T06:48:15.096Z,2.20
2022-09-02T06:50:44.268Z,1.70
2022-09-02T06:53:11.767Z,1.83
2022-09-02T06:55:40.332Z,1.67
2022-09-02T06:58:07.147Z,2.00
2022-09-02T07:00:35.488Z,1.70
2022-09-02T07:03:21.600Z,1.60
2022-09-02T07:05:58.158Z,2.20
2022-09-02T07:08:24.724Z,1.83
2022-09-02T07:10:51.219Z,1.83
2022-09-02T07:13:17.715Z,1.80
2022-09-02T07:15:44.212Z,1.93
2022-09-02T07:18:10.675Z,1.70
2022-09-02T07:20:37.114Z,1.63
2022-09-02T07:23:04.759Z,1.50
2022-09-02T07:25:31.323Z,2.00
2022-09-02T07:27:57.971Z,1.80
2022-09-02T07:30:24.467Z,1.80
2022-09-02T07:32:50.943Z,1.60
2022-09-02T07:35:17.426Z,1.50
2022-09-02T07:37:43.869Z,1.43
2022-09-02T07:40:11.546Z,1.60
2022-09-02T07:42:38.207Z,1.60
2022-09-02T07:45:05.123Z,1.60
2022-09-02T07:47:31.572Z,1.47
2022-09-02T07:52:44.540Z,1.60
2022-09-02T07:55:14.727Z,1.63
2022-09-02T07:57:41.695Z,1.70
2022-09-02T08:00:08.830Z,1.60
2022-09-02T08:02:35.498Z,1.90
2022-09-02T08:05:02.314Z,1.77
2022-09-02T08:07:28.792Z,1.67
2022-09-02T08:09:55.266Z,1.67
2022-09-02T08:12:22.511Z,1.47
2022-09-02T08:14:49.345Z,1.50
2022-09-02T08:17:15.970Z,1.80
2022-09-02T08:19:45.071Z,1.53
2022-09-02T08:22:11.544Z,1.47
2022-09-02T08:24:56.292Z,1.37
2022-09-02T08:27:22.740Z,1.10
2022-09-02T08:29:49.139Z,1.30
2022-09-02T08:32:15.906Z,1.50
2022-09-02T08:34:42.457Z,1.60
2022-09-02T08:37:08.945Z,1.27
2022-09-02T08:39:36.488Z,1.50
2022-09-02T08:42:13.942Z,1.10
2022-09-02T08:44:41.152Z,1.17
2022-09-02T08:47:16.022Z,1.00
2022-09-02T08:49:46.419Z,1.30
2022-09-02T08:52:31.188Z,1.50
2022-09-02T08:54:58.051Z,1.50
2022-09-02T08:57:27.578Z,1.13
2022-09-02T08:59:58.356Z,1.13
2022-09-02T09:03:02.195Z,1.40
2022-09-02T09:05:37.928Z,1.30
2022-09-02T09:08:32.661Z,1.30
2022-09-02T09:11:03.894Z,1.03
2022-09-02T09:13:55.577Z,1.23
2022-09-02T09:16:39.721Z,1.00
2022-09-02T09:19:12.191Z,1.27
2022-09-02T09:21:40.841Z,1.37
2022-09-02T09:24:30.397Z,1.00
2022-09-02T09:26:58.323Z,1.00
2022-09-02T09:29:25.022Z,1.33
2022-09-02T09:31:58.482Z,1.03
2022-09-02T09:34:25.000Z,0.80
2022-09-02T09:36:53.910Z,0.80
2022-09-02T09:39:26.609Z,1.00
2022-09-02T09:41:56.393Z,1.00
2022-09-02T09:44:45.851Z,0.80
2022-09-02T09:47:21.198Z,0.70
2022-09-02T09:49:49.892Z,1.10
2022-09-02T09:52:30.390Z,1.00
2022-09-02T09:55:20.980Z,1.10
2022-09-02T09:57:51.670Z,1.30
2022-09-02T10:00:32.322Z,1.10
2022-09-02T10:03:02.589Z,0.73
2022-09-02T10:05:39.959Z,0.90
2022-09-02T10:08:21.047Z,0.80
2022-09-02T10:11:03.492Z,0.80
2022-09-02T10:13:32.946Z,1.07
2022-09-02T10:16:28.365Z,0.80
2022-09-02T10:19:06.716Z,0.90
2022-09-02T10:21:56.695Z,0.93
2022-09-02T10:24:45.116Z,0.80
2022-09-02T10:27:16.731Z,0.70
2022-09-02T10:29:51.906Z,0.97
2022-09-02T10:32:27.271Z,0.90
2022-09-02T10:35:11.461Z,0.70
2022-09-02T10:38:05.164Z,0.93
2022-09-02T10:40:41.641Z,0.80
2022-09-02T10:43:11.724Z,0.70
2022-09-02T10:45:50.781Z,0.80
2022-09-02T10:48:35.923Z,1.23
2022-09-02T10:51:21.189Z,0.70
2022-09-02T10:54:00.997Z,1.07
2022-09-02T10:56:34.997Z,0.80
2022-09-02T10:59:11.907Z,0.70
2022-09-02T11:01:46.860Z,1.30
2022-09-02T11:04:33.863Z,0.90
2022-09-02T11:07:03.186Z,0.90
2022-09-02T11:09:46.136Z,1.00
2022-09-02T11:12:22.875Z,1.13
2022-09-02T11:14:54.980Z,0.83
2022-09-02T11:17:49.341Z,0.70
2022-09-02T11:20:57.059Z,0.90
2022-09-02T11:23:41.991Z,0.80
2022-09-02T11:26:14.205Z,0.97
2022-09-02T11:28:55.388Z,1.20
2022-09-02T11:31:34.700Z,0.83
2022-09-02T11:34:25.284Z,1.00
2022-09-02T11:36:52.770Z,0.70
2022-09-02T11:39:51.868Z,1.00
2022-09-02T11:43:03.312Z,1.03
2022-09-02T11:45:44.452Z,0.80
2022-09-02T11:48:36.735Z,0.50
2022-09-02T11:51:12.637Z,1.03
2022-09-02T11:53:42.810Z,0.80
2022-09-02T11:56:19.792Z,0.90
2022-09-02T11:58:51.163Z,0.80
2022-09-02T12:01:48.448Z,0.90
2022-09-02T12:07:08.618Z,0.70
2022-09-02T12:09:47.898Z,0.80
2022-09-02T12:12:36.478Z,0.83
2022-09-02T12:15:06.535Z,0.80
2022-09-02T12:17:40.017Z,0.70
2022-09-02T12:20:31.481Z,0.80
2022-09-02T12:22:58.422Z,0.90
2022-09-02T12:25:26.968Z,0.90
2022-09-02T12:28:19.203Z,0.80
2022-09-02T12:30:56.612Z,0.93
2022-09-02T12:33:41.185Z,0.93
2022-09-02T12:36:10.936Z,0.60
2022-09-02T12:38:41.781Z,0.90
2022-09-02T12:41:26.407Z,0.80
2022-09-02T12:44:10.144Z,0.77
2022-09-02T12:46:36.856Z,0.80
2022-09-02T12:49:21.469Z,0.80
2022-09-02T12:52:02.316Z,1.30
2022-09-02T12:54:49.008Z,0.70
2022-09-02T12:57:19.495Z,0.80
2022-09-02T12:59:47.919Z,0.70
2022-09-02T13:02:47.731Z,0.80
2022-09-02T13:05:27.439Z,0.80
2022-09-02T13:08:17.328Z,0.77
2022-09-02T13:11:05.564Z,0.80
2022-09-02T13:13:44.154Z,1.00
2022-09-02T13:16:41.855Z,0.90
2022-09-02T13:19:33.262Z,0.80
2022-09-02T13:22:31.126Z,0.90
2022-09-02T13:25:06.503Z,0.90
2022-09-02T13:27:42.057Z,1.00
2022-09-02T13:30:08.681Z,0.83
2022-09-02T13:32:35.471Z,0.77
2022-09-02T13:35:06.093Z,0.90
2022-09-02T13:37:43.475Z,1.13
2022-09-02T13:40:21.834Z,0.90
2022-09-02T13:42:54.275Z,1.00
2022-09-02T13:45:26.489Z,0.67
2022-09-02T13:47:58.879Z,1.10
2022-09-02T13:50:28.313Z,0.97
2022-09-02T13:54:05.059Z,0.87
2022-09-02T13:55:55.464Z,1.00
2022-09-02T13:58:33.800Z,0.90
2022-09-02T14:01:21.911Z,0.80
2022-09-02T14:03:53.783Z,0.83
2022-09-02T14:06:24.132Z,0.90
2022-09-02T14:08:58.418Z,1.03
2022-09-02T14:11:26.241Z,1.00
2022-09-02T14:13:53.751Z,1.10
2022-09-02T14:16:35.371Z,1.00
2022-09-02T14:19:10.770Z,0.83
2022-09-02T14:21:46.344Z,0.70
2022-09-02T14:24:15.894Z,1.10
2022-09-02T14:26:45.590Z,1.10
2022-09-02T14:29:17.710Z,1.10
2022-09-02T14:31:50.183Z,0.87
2022-09-02T14:35:27.891Z,0.90
2022-09-02T14:38:26.659Z,0.90
2022-09-02T14:41:33.648Z,1.00
2022-09-02T14:44:15.444Z,1.00
2022-09-02T14:46:57.127Z,1.00
2022-09-02T14:49:29.874Z,0.80
2022-09-02T14:52:00.076Z,0.90
2022-09-02T14:54:54.058Z,1.00
2022-09-02T14:57:28.763Z,0.90
2022-09-02T15:00:01.796Z,0.90
2022-09-02T15:02:28.265Z,0.83
2022-09-02T15:04:56.420Z,1.00
2022-09-02T15:07:23.445Z,1.00
2022-09-02T15:09:53.314Z,0.90
2022-09-02T15:12:33.221Z,1.03
2022-09-02T15:15:00.663Z,1.10
2022-09-02T15:17:29.435Z,1.00
2022-09-02T15:19:56.605Z,1.10
2022-09-02T15:22:23.991Z,0.70
2022-09-02T15:24:51.638Z,0.80
2022-09-02T15:27:21.136Z,0.80
2022-09-02T15:29:51.051Z,1.00
2022-09-02T15:32:17.801Z,0.93
2022-09-02T15:34:44.696Z,0.77
2022-09-02T15:37:13.149Z,0.90
2022-09-02T15:39:40.158Z,0.93
2022-09-02T15:42:06.701Z,0.80
2022-09-02T15:44:33.172Z,0.90
2022-09-02T15:46:59.946Z,0.70
2022-09-02T15:49:26.504Z,1.00
2022-09-02T15:51:55.069Z,0.90
2022-09-02T15:54:23.677Z,0.70
2022-09-02T15:56:55.153Z,0.80
2022-09-02T15:59:22.258Z,0.80
2022-09-02T16:01:58.637Z,0.97
2022-09-02T16:04:27.361Z,0.90
2022-09-02T16:06:54.202Z,1.00
2022-09-02T16:09:21.148Z,0.80
2022-09-02T16:11:50.307Z,0.73
2022-09-02T16:14:20.688Z,1.43
2022-09-02T16:16:47.533Z,1.20
2022-09-02T16:19:14.297Z,1.10
2022-09-02T16:21:44.155Z,0.90
2022-09-02T16:24:10.665Z,1.20
2022-09-02T16:26:39.041Z,1.10
2022-09-02T16:29:09.075Z,1.00
2022-09-02T16:31:38.494Z,0.90
2022-09-02T16:34:07.883Z,0.77
2022-09-02T16:36:37.043Z,0.70
2022-09-02T16:39:04.841Z,0.70
2022-09-02T16:41:36.508Z,0.90
2022-09-02T16:44:10.743Z,0.90
2022-09-02T16:46:40.542Z,0.90
2022-09-02T16:49:07.750Z,1.00
2022-09-02T16:51:34.646Z,0.80
2022-09-02T16:54:03.749Z,0.77
2022-09-02T16:56:31.249Z,0.67
2022-09-02T16:59:02.788Z,0.90
2022-09-02T17:01:32.400Z,0.70
2022-09-02T17:04:00.274Z,0.70
2022-09-02T17:06:27.990Z,1.10
2022-09-02T17:08:54.580Z,1.00
2022-09-02T17:11:28.622Z,1.00
2022-09-02T17:13:57.520Z,0.70
2022-09-02T17:16:26.995Z,1.00
2022-09-02T17:18:54.677Z,1.00
2022-09-02T17:21:35.241Z,0.90
2022-09-02T17:24:03.267Z,0.80
2022-09-02T17:26:33.608Z,1.00
2022-09-02T17:29:01.218Z,1.07
2022-09-02T17:31:30.021Z,1.30
2022-09-02T17:34:03.884Z,0.97
2022-09-02T17:36:33.090Z,0.90
2022-09-02T17:39:12.879Z,1.10
2022-09-02T17:41:54.474Z,0.90
2022-09-02T17:44:35.465Z,1.10
2022-09-02T17:47:06.938Z,1.00
2022-09-02T17:49:36.519Z,1.10
2022-09-02T17:52:07.883Z,1.00
2022-09-02T17:54:37.717Z,0.80
2022-09-02T17:57:28.176Z,1.20
2022-09-02T18:00:16.270Z,1.43
2022-09-02T18:02:49.097Z,1.53
2022-09-02T18:05:56.742Z,1.03
2022-09-02T18:08:28.767Z,1.13
2022-09-02T18:10:58.449Z,1.13
2022-09-02T18:13:54.309Z,0.80
2022-09-02T18:16:29.194Z,1.00
2022-09-02T18:19:13.163Z,0.80
2022-09-02T18:21:53.011Z,1.00
2022-09-02T18:24:57.820Z,0.97
2022-09-02T18:27:34.488Z,1.07
2022-09-02T18:30:03.763Z,1.10
2022-09-02T18:32:46.175Z,1.20
2022-09-02T18:35:18.712Z,1.20
2022-09-02T18:38:01.039Z,0.90
2022-09-02T18:40:33.074Z,1.00
2022-09-02T18:43:38.693Z,1.30
2022-09-02T18:46:06.196Z,1.17
2022-09-02T18:48:36.136Z,1.20
2022-09-02T18:51:06.913Z,1.30
2022-09-02T18:53:44.958Z,1.37
2022-09-02T18:56:13.285Z,1.20
2022-09-02T18:58:49.215Z,0.87
2022-09-02T19:01:27.231Z,1.33
2022-09-02T19:03:53.790Z,1.20
2022-09-02T19:06:24.395Z,1.20
2022-09-02T19:08:59.493Z,1.10
2022-09-02T19:11:27.168Z,1.20
2022-09-02T19:13:56.927Z,1.10
2022-09-02T19:16:26.642Z,1.30
2022-09-02T19:18:54.064Z,1.20
2022-09-02T19:21:31.325Z,1.10
2022-09-02T19:23:57.998Z,1.30
2022-09-02T19:26:24.525Z,1.40
2022-09-02T19:28:52.372Z,1.40
2022-09-02T19:31:21.960Z,1.53
2022-09-02T19:33:53.162Z,1.37
2022-09-02T19:36:22.559Z,1.40
2022-09-02T19:38:49.130Z,1.27
2022-09-02T19:41:15.934Z,1.30
2022-09-02T19:43:42.560Z,1.10
2022-09-02T19:46:27.737Z,1.20
2022-09-02T19:49:00.220Z,1.20
2022-09-02T19:51:28.403Z,0.93
2022-09-02T19:53:56.499Z,0.90
2022-09-02T19:56:23.006Z,1.50
2022-09-02T19:58:50.055Z,1.30
2022-09-02T20:01:16.686Z,1.07
2022-09-02T20:03:43.481Z,0.90
2022-09-02T20:06:11.227Z,1.20
2022-09-02T20:08:37.715Z,1.23
2022-09-02T20:11:06.266Z,1.00
2022-09-02T20:13:41.110Z,0.93
2022-09-02T20:16:21.080Z,1.00
2022-09-02T20:18:57.021Z,1.00
2022-09-02T20:21:30.428Z,1.17
2022-09-02T20:24:06.914Z,1.13
2022-09-02T20:26:58.991Z,1.00
2022-09-02T20:29:45.051Z,1.23
2022-09-02T20:32:34.713Z,1.00
2022-09-02T20:35:24.036Z,0.90
2022-09-02T20:38:14.718Z,1.07
2022-09-02T20:40:46.293Z,1.10
2022-09-02T20:43:35.037Z,0.70
2022-09-02T20:46:20.249Z,1.20
2022-09-02T20:49:11.806Z,1.20
2022-09-02T20:52:00.832Z,1.00
2022-09-02T20:54:36.842Z,1.20
2022-09-02T20:57:04.102Z,1.10
2022-09-02T20:59:41.470Z,1.20
2022-09-02T21:02:12.806Z,0.90
2022-09-02T21:04:45.111Z,1.70
2022-09-02T21:07:20.767Z,1.13
2022-09-02T21:09:59.052Z,0.97
2022-09-02T21:12:38.836Z,1.00
2022-09-02T21:15:38.556Z,1.07
2022-09-02T21:18:33.523Z,1.07
2022-09-02T21:21:25.239Z,0.93
2022-09-02T21:24:05.642Z,1.20
2022-09-02T21:26:48.931Z,1.10
2022-09-02T21:29:23.586Z,1.23
2022-09-02T21:32:17.460Z,1.10
2022-09-02T21:34:52.453Z,0.90
2022-09-02T21:37:20.787Z,1.00
2022-09-02T21:39:55.786Z,1.00
2022-09-02T21:42:47.162Z,1.10
2022-09-02T21:45:37.915Z,1.07
2022-09-02T21:48:35.083Z,1.10
2022-09-02T21:51:19.182Z,1.10
2022-09-02T21:54:10.623Z,1.47
2022-09-02T21:57:09.169Z,1.03
2022-09-02T21:59:55.283Z,1.00
2022-09-02T22:02:51.316Z,1.00
2022-09-02T22:05:36.542Z,1.03
2022-09-02T22:08:44.676Z,1.03
2022-09-02T22:11:32.941Z,1.17
2022-09-02T22:14:09.946Z,1.20
2022-09-02T22:17:01.250Z,1.20
2022-09-02T22:19:31.720Z,1.13
2022-09-02T22:22:27.436Z,0.87
2022-09-02T22:24:55.030Z,1.13
2022-09-02T22:27:29.672Z,0.80
2022-09-02T22:30:04.253Z,0.90
2022-09-02T22:32:37.378Z,1.20
2022-09-02T22:35:17.034Z,0.90
2022-09-02T22:37:59.688Z,0.90
2022-09-02T22:40:32.326Z,0.90
2022-09-02T22:43:06.841Z,1.10
2022-09-02T22:46:05.595Z,0.93
2022-09-02T22:49:02.887Z,1.10
2022-09-02T22:51:57.322Z,1.00
2022-09-02T22:54:25.892Z,0.90
2022-09-02T22:57:00.142Z,1.03
2022-09-02T22:59:32.687Z,1.00
2022-09-02T23:02:19.423Z,0.93
2022-09-02T23:04:48.907Z,1.00
2022-09-02T23:07:15.313Z,0.90
2022-09-02T23:09:42.123Z,1.10
2022-09-02T23:12:37.415Z,0.93
2022-09-02T23:15:27.154Z,0.97
2022-09-02T23:18:03.267Z,0.87
2022-09-02T23:20:32.652Z,1.23
2022-09-02T23:23:14.360Z,1.70
2022-09-02T23:25:51.989Z,1.13
2022-09-02T23:28:28.106Z,1.07
2022-09-02T23:31:02.942Z,0.90
2022-09-02T23:34:04.318Z,1.10
2022-09-02T23:36:41.473Z,0.90
2022-09-02T23:39:37.620Z,1.10
2022-09-02T23:42:04.480Z,0.90
2022-09-02T23:44:31.378Z,1.00
2022-09-02T23:47:08.854Z,0.90
2022-09-02T23:49:43.269Z,1.17
2022-09-02T23:52:21.223Z,0.80
2022-09-02T23:55:06.706Z,1.40
2022-09-02T23:57:50.554Z,0.80
